Crescent, Oklahoma
Current Conditions -  °F | °C
As of 7:53 PM on Thursday 20 Nov 2014 (Local Time) from KGOK Reporting Station
Clear Clear  
Wind Chill: 45°   Ceiling: Unl
Heat Index: 49°   Visibility: 10mi
Dew Point: 36°   Wind: 10mph
Humidity: 61%   Direction: 90°E
Pressure: 30.06"   Gusts: NA
Location:  35.95°N, 97.59°W
Report Text: KGOK 210153Z AUTO 09009KT 10SM CLR 09/02 A3006 RMK AO2 SLP187 T00940022
Loading
Personal Weather Stations






























Interactive Weather Map New forecast layout! Learn more

10-Day Weather Forecast

Advertisements
Track Severe Weather on mobile